FW2796 Weather Reports


Display with metric or nautical units.
time (UTC)temp
F
wind
direction
speed
MPH
gust
MPH
rain 1hr
in
rain 24hr
in
rain mn
in
humidity
%
barometer
mb
20200330230250 54 292 7.0 11.0 0.00 0.00 0.00 38 1014.9
20200330225250 54 288 9.0 18.0 0.00 0.00 0.00 36 1014.8
20200330224248 55 318 6.0 12.0 0.00 0.00 0.00 35 1014.4
20200330223248 57 6 6.0 10.0 0.00 0.00 0.00 32 1014.2
20200330222247 61 294 8.0 12.0 0.00 0.00 0.00 26 1014.2
20200330221247 61 287 9.0 14.0 0.00 0.00 0.00 26 1014.1
20200330220247 57 288 8.0 13.0 0.00 0.00 0.00 28 1014.1
20200330215247 57 292 9.0 13.0 0.00 0.00 0.00 29 1014.0
20200330214248 58 291 9.0 16.0 0.00 0.00 0.00 24 1013.9
20200330213247 59 294 7.0 13.0 0.00 0.00 0.00 26 1013.7
20200330212248 60 284 7.0 11.0 0.00 0.00 0.00 26 1013.7
20200330211247 62 341 6.0 12.0 0.00 0.00 0.00 24 1013.7
20200330210247 62 301 7.0 10.0 0.00 0.00 0.00 26 1013.7
20200330205248 64 315 5.0 12.0 0.00 0.00 0.00 22 1013.8
20200330204247 65 324 5.0 9.0 0.00 0.00 0.00 24 1013.8
20200330203248 66 293 5.0 9.0 0.00 0.00 0.00 24 1014.0
20200330202247 62 301 7.0 13.0 0.00 0.00 0.00 26 1014.1
20200330201247 61 301 5.0 11.0 0.00 0.00 0.00 27 1014.1
20200330200247 64 281 5.0 8.0 0.00 0.00 0.00 26 1014.1
20200330195248 58 303 7.0 12.0 0.00 0.00 0.00 31 1014.2
20200330194248 59 313 7.0 12.0 0.00 0.00 0.00 32 1014.2
20200330193247 61 344 6.0 12.0 0.00 0.00 0.00 29 1014.2
20200330192248 63 354 6.0 12.0 0.00 0.00 0.00 26 1014.3
20200330191247 65 358 5.0 10.0 0.00 0.00 0.00 27 1014.4
20200330190248 62 7 7.0 11.0 0.00 0.00 0.00 28 1014.4
20200330185247 64 0 6.0 10.0 0.00 0.00 0.00 28 1014.6
20200330184248 61 347 6.0 11.0 0.00 0.00 0.00 29 1014.7
20200330183248 59 357 7.0 12.0 0.00 0.00 0.00 30 1014.7
20200330182247 60 311 7.0 12.0 0.00 0.00 0.00 29 1014.8
20200330181248 62 326 6.0 11.0 0.00 0.00 0.00 29 1014.8
20200330180248 61 304 6.0 10.0 0.00 0.00 0.00 30 1014.8
20200330175249 61 306 6.0 10.0 0.00 0.00 0.00 27 1014.8
20200330174248 60 306 7.0 9.0 0.00 0.00 0.00 29 1014.7
20200330173248 60 314 7.0 13.0 0.00 0.00 0.00 29 1014.8
20200330172248 59 307 7.0 12.0 0.00 0.00 0.00 31 1014.7
20200330171247 57 299 8.0 15.0 0.00 0.00 0.00 32 1014.8
20200330170248 57 298 8.0 12.0 0.00 0.00 0.00 32 1014.8
20200330165247 57 308 9.0 13.0 0.00 0.00 0.00 33 1014.7
20200330164247 57 293 8.0 13.0 0.00 0.00 0.00 34 1014.8
20200330163248 57 317 8.0 11.0 0.00 0.00 0.00 35 1014.8
20200330162247 57 312 7.0 11.0 0.00 0.00 0.00 36 1014.9
20200330161247 56 327 7.0 13.0 0.00 0.00 0.00 37 1014.8
20200330160247 55 317 7.0 11.0 0.00 0.00 0.00 38 1014.8
20200330155247 53 302 8.0 13.0 0.00 0.00 0.00 40 1014.8
20200330154247 53 306 8.0 12.0 0.00 0.00 0.00 40 1014.7
20200330153248 52 299 7.0 13.0 0.00 0.00 0.00 40 1014.7
20200330152247 51 309 6.0 11.0 0.00 0.00 0.00 42 1014.7
20200330151247 50 319 6.0 12.0 0.00 0.00 0.00 42 1014.8
20200330150247 50 314 6.0 10.0 0.00 0.00 0.00 42 1014.8
20200330145247 49 329 4.0 7.0 0.00 0.00 0.00 44 1014.8
20200330144247 46 309 4.0 6.0 0.00 0.00 0.00 48 1014.9
20200330143247 42 311 3.0 8.0 0.00 0.00 0.00 53 1014.8
20200330142247 41 335 4.0 7.0 0.00 0.00 0.00 54 1014.7
20200330141247 39 294 4.0 5.0 0.00 0.00 0.00 57 1014.7
20200330140247 37 294 4.0 9.0 0.00 0.00 0.00 60 1014.7
20200330135247 37 302 5.0 8.0 0.00 0.00 0.00 63 1014.5
20200330134247 35 305 3.0 6.0 0.00 0.00 0.00 68 1014.5
20200330133247 34 341 4.0 6.0 0.00 0.00 0.00 67 1014.4
20200330132247 34 351 4.0 6.0 0.00 0.00 0.00 66 1014.3
20200330131247 33 348 4.0 5.0 0.00 0.00 0.00 68 1014.2
20200330130247 32 9 4.0 6.0 0.00 0.00 0.00 68 1014.2
20200330125247 32 357 4.0 6.0 0.00 0.00 0.00 69 1014.2
20200330124247 32 358 4.0 6.0 0.00 0.00 0.00 69 1014.2
20200330123247 33 343 4.0 5.0 0.00 0.00 0.00 67 1014.2
20200330122247 33 350 4.0 7.0 0.00 0.00 0.00 67 1014.2
20200330121247 33 8 4.0 7.0 0.00 0.00 0.00 67 1014.3
20200330120247 34 328 4.0 6.0 0.00 0.00 0.00 67 1014.3
20200330115247 34 321 3.0 5.0 0.00 0.00 0.00 67 1014.3
20200330114247 34 341 3.0 5.0 0.00 0.00 0.00 68 1014.2
20200330113247 33 349 4.0 5.0 0.00 0.00 0.00 69 1014.4
20200330112247 33 309 2.0 4.0 0.00 0.00 0.00 70 1014.5
20200330111246 32 343 3.0 4.0 0.00 0.00 0.00 70 1014.7
20200330110247 32 343 2.0 3.0 0.00 0.00 0.00 74 1014.7
20200330105248 33 289 3.0 5.0 0.00 0.00 0.00 74 1014.7
20200330104247 32 278 2.0 4.0 0.00 0.00 0.00 75 1014.6
20200330103247 32 303 2.0 3.0 0.00 0.00 0.00 74 1014.5
20200330102247 32 283 1.0 3.0 0.00 0.00 0.00 74 1014.7
20200330101247 32 299 1.0 2.0 0.00 0.00 0.00 73 1014.8
20200330100247 32 320 2.0 3.0 0.00 0.00 0.00 74 1014.8
20200330095246 32 282 2.0 5.0 0.00 0.00 0.00 73 1014.7
20200330094247 32 318 3.0 4.0 0.00 0.00 0.00 73 1014.9
20200330093246 32 285 2.0 4.0 0.00 0.00 0.00 74 1015.0
20200330092247 32 303 2.0 4.0 0.00 0.00 0.00 76 1015.0
20200330091247 32 307 2.0 5.0 0.00 0.00 0.00 71 1015.0
20200330090247 32 356 2.0 3.0 0.00 0.00 0.00 71 1015.0
20200330085247 33 2 4.0 5.0 0.00 0.00 0.00 72 1015.0
20200330084247 33 3 3.0 5.0 0.00 0.00 0.00 72 1015.1
20200330083246 32 330 2.0 3.0 0.00 0.00 0.00 75 1015.3
20200330082246 32 343 3.0 4.0 0.00 0.00 0.00 72 1015.5
20200330081246 32 344 3.0 4.0 0.00 0.00 0.00 74 1015.5
20200330080246 32 6 4.0 6.0 0.00 0.00 0.00 74 1015.5
20200330075246 32 13 5.0 7.0 0.00 0.00 0.00 73 1015.5
20200330074247 32 12 5.0 6.0 0.00 0.00 0.00 71 1015.5
20200330073246 32 6 4.0 5.0 0.00 0.00 0.00 70 1015.6
20200330072246 32 3 4.0 5.0 0.00 0.00 0.00 70 1015.6
20200330071247 33 11 4.0 5.0 0.00 0.00 0.00 70 1015.8
20200330070247 33 14 4.0 5.0 0.00 0.00 0.00 68 1015.8
20200330065246 34 16 4.0 5.0 0.00 0.00 0.00 66 1015.8
20200330064246 34 3 4.0 5.0 0.00 0.00 0.00 64 1015.8
20200330063246 35 358 4.0 6.0 0.00 0.00 0.00 64 1015.8
20200330062246 35 356 3.0 5.0 0.00 0.00 0.00 65 1015.9
20200330061246 35 359 3.0 4.0 0.00 0.00 0.00 67 1016.0
20200330060247 35 322 2.0 2.0 0.00 0.00 0.00 74 1016.0
20200330055246 35 300 2.0 3.0 0.00 0.00 0.00 73 1016.0
20200330054246 36 301 2.0 2.0 0.00 0.00 0.00 67 1016.1
20200330053246 37 300 2.0 3.0 0.00 0.00 0.00 62 1016.1
20200330052247 38 75 2.0 3.0 0.00 0.00 0.00 55 1016.1
20200330051247 37 44 2.0 3.0 0.00 0.00 0.00 56 1016.2
20200330050246 38 45 2.0 3.0 0.00 0.00 0.00 57 1016.2
20200330045247 38 43 2.0 3.0 0.00 0.00 0.00 55 1016.3
20200330044246 38 105 2.0 4.0 0.00 0.00 0.00 53 1016.3
20200330043246 38 118 1.0 2.0 0.00 0.00 0.00 54 1016.3
20200330042246 39 117 3.0 5.0 0.00 0.00 0.00 54 1016.3
20200330041246 39 109 3.0 4.0 0.00 0.00 0.00 53 1016.2
20200330040247 39 109 4.0 5.0 0.00 0.00 0.00 52 1016.2
20200330035247 40 112 3.0 5.0 0.00 0.00 0.00 51 1016.2
20200330034248 40 108 4.0 5.0 0.00 0.00 0.00 50 1016.2
20200330033246 40 100 3.0 5.0 0.00 0.00 0.00 51 1016.1
20200330032247 39 150 2.0 3.0 0.00 0.00 0.00 49 1016.1
20200330031246 40 149 0.0 2.0 0.00 0.00 0.00 50 1016.0
20200330030246 41 111 2.0 3.0 0.00 0.00 0.00 48 1016.0
20200330025246 41 112 3.0 4.0 0.00 0.00 0.00 46 1015.9
20200330024247 42 107 2.0 3.0 0.00 0.00 0.00 43 1015.8
20200330023250 42 105 2.0 3.0 0.00 0.00 0.00 44 1015.7
20200330022246 43 34 1.0 2.0 0.00 0.00 0.00 44 1015.5
20200330021247 43 24 2.0 3.0 0.00 0.00 0.00 42 1015.4
20200330020246 44 43 3.0 3.0 0.00 0.00 0.00 44 1015.4
20200330015246 44 46 3.0 3.0 0.00 0.00 0.00 43 1015.4
20200330014247 44 67 2.0 3.0 0.00 0.00 0.00 40 1015.5
20200330013246 45 95 2.0 3.0 0.00 0.00 0.00 38 1015.5
20200330012249 46 97 2.0 3.0 0.00 0.00 0.00 37 1015.4
20200330011246 47 99 2.0 4.0 0.00 0.00 0.00 37 1015.4
20200330010246 48 101 3.0 4.0 0.00 0.00 0.00 37 1015.4
20200330005246 49 114 3.0 4.0 0.00 0.00 0.00 35 1015.4
20200330004246 50 113 3.0 4.0 0.00 0.00 0.00 33 1015.3
20200330003246 51 130 3.0 5.0 0.00 0.00 0.00 32 1015.2
20200330002246 52 119 3.0 4.0 0.00 0.00 0.00 32 1015.2
20200330001246 52 143 3.0 4.0 0.00 0.00 0.00 30 1015.2
20200330000246 52 138 3.0 4.0 0.00 0.00 0.00 29 1015.2
20200329235246 51 174 4.0 6.0 0.00 0.00 0.00 29 1015.2
20200329234246 53 156 4.0 9.0 0.00 0.00 0.00 27 1015.1
20200329233245 54 143 6.0 9.0 0.00 0.00 0.00 27 1015.0
20200329232247 55 122 5.0 9.0 0.00 0.00 0.00 25 1015.0
20200329231247 56 123 6.0 9.0 0.00 0.00 0.00 25 1015.0